sensor_id;sensor_type;location;lat;lon;timestamp;P1;durP1;ratioP1;P2;durP2;ratioP2
42802;SDS011;28447;48.682;9.022;2023-07-30T04:01:49;8.07;;;6.20;;
42802;SDS011;28447;48.682;9.022;2023-07-30T04:04:15;7.60;;;5.70;;
42802;SDS011;28447;48.682;9.022;2023-07-30T04:06:40;8.37;;;5.90;;
42802;SDS011;28447;48.682;9.022;2023-07-30T04:09:06;9.00;;;5.80;;
42802;SDS011;28447;48.682;9.022;2023-07-30T04:11:33;6.37;;;5.70;;
42802;SDS011;28447;48.682;9.022;2023-07-30T04:13:58;9.17;;;6.90;;
42802;SDS011;28447;48.682;9.022;2023-07-30T04:16:24;6.23;;;5.60;;
42802;SDS011;28447;48.682;9.022;2023-07-30T04:18:49;8.77;;;6.10;;
42802;SDS011;28447;48.682;9.022;2023-07-30T04:21:15;6.30;;;5.67;;
42802;SDS011;28447;48.682;9.022;2023-07-30T04:23:41;7.77;;;5.93;;
42802;SDS011;28447;48.682;9.022;2023-07-30T04:26:06;7.70;;;5.07;;
42802;SDS011;28447;48.682;9.022;2023-07-30T04:28:32;7.50;;;5.27;;
42802;SDS011;28447;48.682;9.022;2023-07-30T04:30:58;8.70;;;5.50;;
42802;SDS011;28447;48.682;9.022;2023-07-30T04:33:23;6.40;;;5.40;;
42802;SDS011;28447;48.682;9.022;2023-07-30T04:35:51;7.30;;;5.50;;
42802;SDS011;28447;48.682;9.022;2023-07-30T04:38:17;6.70;;;5.50;;
42802;SDS011;28447;48.682;9.022;2023-07-30T04:40:42;9.20;;;6.30;;
42802;SDS011;28447;48.682;9.022;2023-07-30T04:43:08;7.83;;;6.37;;
42802;SDS011;28447;48.682;9.022;2023-07-30T04:45:34;10.67;;;6.80;;
42802;SDS011;28447;48.682;9.022;2023-07-30T04:47:59;7.80;;;5.97;;
42802;SDS011;28447;48.682;9.022;2023-07-30T04:50:25;6.93;;;6.20;;
42802;SDS011;28447;48.682;9.022;2023-07-30T04:52:51;6.30;;;5.70;;
42802;SDS011;28447;48.682;9.022;2023-07-30T04:55:16;7.00;;;5.63;;
42802;SDS011;28447;48.682;9.022;2023-07-30T04:57:42;9.87;;;6.43;;
42802;SDS011;28447;48.682;9.022;2023-07-30T05:00:08;6.80;;;6.07;;
42802;SDS011;28447;48.682;9.022;2023-07-30T05:02:34;5.97;;;5.37;;
42802;SDS011;28447;48.682;9.022;2023-07-30T05:04:59;6.33;;;5.63;;
42802;SDS011;28447;48.682;9.022;2023-07-30T05:07:25;13.33;;;6.13;;
42802;SDS011;28447;48.682;9.022;2023-07-30T05:09:51;6.60;;;5.57;;
42802;SDS011;28447;48.682;9.022;2023-07-30T05:12:16;6.37;;;5.73;;
42802;SDS011;28447;48.682;9.022;2023-07-30T05:14:42;8.47;;;5.37;;
42802;SDS011;28447;48.682;9.022;2023-07-30T05:17:07;8.20;;;6.03;;
42802;SDS011;28447;48.682;9.022;2023-07-30T05:19:33;5.77;;;4.93;;
42802;SDS011;28447;48.682;9.022;2023-07-30T05:21:59;5.00;;;4.50;;
42802;SDS011;28447;48.682;9.022;2023-07-30T05:24:26;6.00;;;4.53;;
42802;SDS011;28447;48.682;9.022;2023-07-30T05:26:52;4.83;;;4.33;;
42802;SDS011;28447;48.682;9.022;2023-07-30T05:29:18;5.20;;;4.60;;
42802;SDS011;28447;48.682;9.022;2023-07-30T05:31:43;4.70;;;4.20;;
42802;SDS011;28447;48.682;9.022;2023-07-30T05:34:09;6.57;;;4.60;;
42802;SDS011;28447;48.682;9.022;2023-07-30T05:36:34;4.77;;;4.20;;
42802;SDS011;28447;48.682;9.022;2023-07-30T05:39:00;5.40;;;4.10;;
42802;SDS011;28447;48.682;9.022;2023-07-30T05:41:26;4.87;;;4.13;;
42802;SDS011;28447;48.682;9.022;2023-07-30T05:43:51;5.00;;;4.50;;
42802;SDS011;28447;48.682;9.022;2023-07-30T05:46:17;4.93;;;4.13;;
42802;SDS011;28447;48.682;9.022;2023-07-30T05:48:42;4.40;;;3.80;;
42802;SDS011;28447;48.682;9.022;2023-07-30T05:51:08;5.17;;;4.67;;
42802;SDS011;28447;48.682;9.022;2023-07-30T05:53:34;4.50;;;4.10;;
42802;SDS011;28447;48.682;9.022;2023-07-30T05:55:59;5.93;;;4.40;;
42802;SDS011;28447;48.682;9.022;2023-07-30T05:58:25;5.40;;;4.33;;
42802;SDS011;28447;48.682;9.022;2023-07-30T06:00:50;4.20;;;3.67;;
42802;SDS011;28447;48.682;9.022;2023-07-30T06:03:16;5.23;;;3.67;;
42802;SDS011;28447;48.682;9.022;2023-07-30T06:05:42;4.60;;;3.70;;
42802;SDS011;28447;48.682;9.022;2023-07-30T06:08:08;7.80;;;4.40;;
42802;SDS011;28447;48.682;9.022;2023-07-30T06:10:37;5.80;;;3.90;;
42802;SDS011;28447;48.682;9.022;2023-07-30T06:13:05;4.33;;;3.73;;
42802;SDS011;28447;48.682;9.022;2023-07-30T06:15:31;4.60;;;3.83;;
42802;SDS011;28447;48.682;9.022;2023-07-30T06:17:57;4.63;;;4.00;;
42802;SDS011;28447;48.682;9.022;2023-07-30T06:20:23;3.90;;;3.50;;
42802;SDS011;28447;48.682;9.022;2023-07-30T06:22:48;3.90;;;3.53;;
42802;SDS011;28447;48.682;9.022;2023-07-30T06:25:14;3.57;;;3.27;;
42802;SDS011;28447;48.682;9.022;2023-07-30T06:27:40;4.17;;;3.53;;
42802;SDS011;28447;48.682;9.022;2023-07-30T06:30:06;6.33;;;3.33;;
42802;SDS011;28447;48.682;9.022;2023-07-30T06:32:31;3.70;;;3.23;;
42802;SDS011;28447;48.682;9.022;2023-07-30T06:34:57;4.40;;;3.53;;
42802;SDS011;28447;48.682;9.022;2023-07-30T06:37:23;3.20;;;2.90;;
42802;SDS011;28447;48.682;9.022;2023-07-30T06:39:48;3.27;;;2.70;;
42802;SDS011;28447;48.682;9.022;2023-07-30T06:42:14;3.50;;;3.10;;
42802;SDS011;28447;48.682;9.022;2023-07-30T06:44:40;3.23;;;2.93;;
42802;SDS011;28447;48.682;9.022;2023-07-30T06:47:05;2.83;;;2.53;;
42802;SDS011;28447;48.682;9.022;2023-07-30T06:49:31;4.00;;;2.50;;
42802;SDS011;28447;48.682;9.022;2023-07-30T06:51:59;5.80;;;2.30;;
42802;SDS011;28447;48.682;9.022;2023-07-30T06:54:24;2.40;;;2.20;;
42802;SDS011;28447;48.682;9.022;2023-07-30T06:56:50;2.43;;;2.23;;
42802;SDS011;28447;48.682;9.022;2023-07-30T06:59:16;3.63;;;2.27;;
42802;SDS011;28447;48.682;9.022;2023-07-30T07:01:41;2.90;;;2.60;;
42802;SDS011;28447;48.682;9.022;2023-07-30T07:04:07;2.83;;;2.50;;
42802;SDS011;28447;48.682;9.022;2023-07-30T07:06:32;2.73;;;2.53;;
42802;SDS011;28447;48.682;9.022;2023-07-30T07:08:58;3.47;;;2.70;;
42802;SDS011;28447;48.682;9.022;2023-07-30T07:11:24;3.67;;;2.70;;
42802;SDS011;28447;48.682;9.022;2023-07-30T07:13:49;2.90;;;2.60;;
42802;SDS011;28447;48.682;9.022;2023-07-30T07:16:15;4.33;;;3.10;;
42802;SDS011;28447;48.682;9.022;2023-07-30T07:18:41;5.30;;;2.90;;
42802;SDS011;28447;48.682;9.022;2023-07-30T07:21:06;4.40;;;2.73;;
42802;SDS011;28447;48.682;9.022;2023-07-30T07:23:33;4.10;;;3.33;;
42802;SDS011;28447;48.682;9.022;2023-07-30T07:25:58;7.07;;;2.90;;
42802;SDS011;28447;48.682;9.022;2023-07-30T07:28:24;2.97;;;2.73;;
42802;SDS011;28447;48.682;9.022;2023-07-30T07:30:50;4.23;;;3.30;;
42802;SDS011;28447;48.682;9.022;2023-07-30T07:33:15;3.10;;;2.80;;
42802;SDS011;28447;48.682;9.022;2023-07-30T07:35:41;5.83;;;3.50;;
42802;SDS011;28447;48.682;9.022;2023-07-30T07:38:06;4.90;;;3.03;;
42802;SDS011;28447;48.682;9.022;2023-07-30T07:40:36;3.20;;;2.90;;
42802;SDS011;28447;48.682;9.022;2023-07-30T07:43:04;4.10;;;2.80;;
42802;SDS011;28447;48.682;9.022;2023-07-30T07:45:31;2.70;;;2.20;;
42802;SDS011;28447;48.682;9.022;2023-07-30T07:47:56;3.80;;;3.03;;
42802;SDS011;28447;48.682;9.022;2023-07-30T07:50:22;4.40;;;2.70;;
42802;SDS011;28447;48.682;9.022;2023-07-30T07:52:47;4.83;;;2.73;;
42802;SDS011;28447;48.682;9.022;2023-07-30T07:55:13;3.37;;;2.70;;
42802;SDS011;28447;48.682;9.022;2023-07-30T07:57:39;3.83;;;2.80;;
42802;SDS011;28447;48.682;9.022;2023-07-30T08:00:05;4.73;;;3.50;;
42802;SDS011;28447;48.682;9.022;2023-07-30T08:02:31;3.50;;;3.00;;
42802;SDS011;28447;48.682;9.022;2023-07-30T08:04:57;3.03;;;2.83;;
42802;SDS011;28447;48.682;9.022;2023-07-30T08:07:23;3.43;;;2.70;;
42802;SDS011;28447;48.682;9.022;2023-07-30T08:09:48;2.80;;;2.40;;
42802;SDS011;28447;48.682;9.022;2023-07-30T08:12:16;3.93;;;2.90;;
42802;SDS011;28447;48.682;9.022;2023-07-30T08:14:45;4.10;;;3.13;;
42802;SDS011;28447;48.682;9.022;2023-07-30T08:17:10;2.80;;;2.57;;
42802;SDS011;28447;48.682;9.022;2023-07-30T08:19:36;4.03;;;2.53;;
42802;SDS011;28447;48.682;9.022;2023-07-30T08:22:02;2.70;;;2.50;;
42802;SDS011;28447;48.682;9.022;2023-07-30T08:24:28;3.30;;;2.50;;
42802;SDS011;28447;48.682;9.022;2023-07-30T08:26:53;3.47;;;2.70;;
42802;SDS011;28447;48.682;9.022;2023-07-30T08:29:19;3.07;;;2.60;;
42802;SDS011;28447;48.682;9.022;2023-07-30T08:31:45;3.03;;;2.50;;
42802;SDS011;28447;48.682;9.022;2023-07-30T08:34:10;3.10;;;2.63;;
42802;SDS011;28447;48.682;9.022;2023-07-30T08:36:36;3.13;;;2.83;;
42802;SDS011;28447;48.682;9.022;2023-07-30T08:39:02;3.17;;;2.70;;
42802;SDS011;28447;48.682;9.022;2023-07-30T08:41:29;3.90;;;2.70;;
42802;SDS011;28447;48.682;9.022;2023-07-30T08:43:54;3.37;;;2.43;;
42802;SDS011;28447;48.682;9.022;2023-07-30T08:46:20;2.60;;;2.40;;
42802;SDS011;28447;48.682;9.022;2023-07-30T08:48:46;2.50;;;2.30;;
42802;SDS011;28447;48.682;9.022;2023-07-30T08:51:11;2.50;;;2.30;;
42802;SDS011;28447;48.682;9.022;2023-07-30T08:53:39;2.53;;;2.13;;
42802;SDS011;28447;48.682;9.022;2023-07-30T08:56:05;3.10;;;2.80;;
42802;SDS011;28447;48.682;9.022;2023-07-30T08:58:32;2.97;;;2.43;;
42802;SDS011;28447;48.682;9.022;2023-07-30T09:00:59;2.53;;;2.33;;
42802;SDS011;28447;48.682;9.022;2023-07-30T09:03:30;4.00;;;2.47;;
42802;SDS011;28447;48.682;9.022;2023-07-30T09:05:59;3.10;;;2.40;;
42802;SDS011;28447;48.682;9.022;2023-07-30T09:08:24;4.03;;;2.70;;
42802;SDS011;28447;48.682;9.022;2023-07-30T09:10:50;4.37;;;3.00;;
42802;SDS011;28447;48.682;9.022;2023-07-30T09:13:20;4.23;;;3.03;;
42802;SDS011;28447;48.682;9.022;2023-07-30T09:15:50;5.77;;;3.03;;
42802;SDS011;28447;48.682;9.022;2023-07-30T09:18:19;3.10;;;2.63;;
42802;SDS011;28447;48.682;9.022;2023-07-30T09:20:45;3.40;;;3.10;;
42802;SDS011;28447;48.682;9.022;2023-07-30T09:23:11;3.30;;;3.00;;
42802;SDS011;28447;48.682;9.022;2023-07-30T09:25:37;3.27;;;2.73;;
42802;SDS011;28447;48.682;9.022;2023-07-30T09:28:04;3.63;;;2.90;;
42802;SDS011;28447;48.682;9.022;2023-07-30T09:30:31;3.23;;;2.90;;
42802;SDS011;28447;48.682;9.022;2023-07-30T09:32:58;2.67;;;2.43;;
42802;SDS011;28447;48.682;9.022;2023-07-30T09:35:24;3.17;;;2.70;;
42802;SDS011;28447;48.682;9.022;2023-07-30T09:37:57;3.20;;;2.90;;
42802;SDS011;28447;48.682;9.022;2023-07-30T09:40:31;3.63;;;2.77;;
42802;SDS011;28447;48.682;9.022;2023-07-30T09:42:58;3.10;;;2.80;;
42802;SDS011;28447;48.682;9.022;2023-07-30T09:45:25;5.10;;;3.00;;
42802;SDS011;28447;48.682;9.022;2023-07-30T09:47:52;3.90;;;2.53;;
42802;SDS011;28447;48.682;9.022;2023-07-30T09:50:19;4.00;;;3.00;;
42802;SDS011;28447;48.682;9.022;2023-07-30T09:52:45;3.20;;;2.80;;
42802;SDS011;28447;48.682;9.022;2023-07-30T09:55:10;2.77;;;2.57;;
42802;SDS011;28447;48.682;9.022;2023-07-30T09:57:37;3.30;;;3.00;;
42802;SDS011;28447;48.682;9.022;2023-07-30T10:00:03;3.63;;;2.67;;
42802;SDS011;28447;48.682;9.022;2023-07-30T10:02:30;3.40;;;2.77;;
42802;SDS011;28447;48.682;9.022;2023-07-30T10:05:02;2.93;;;2.50;;
42802;SDS011;28447;48.682;9.022;2023-07-30T10:07:33;2.60;;;2.40;;
42802;SDS011;28447;48.682;9.022;2023-07-30T10:10:00;5.43;;;2.80;;
42802;SDS011;28447;48.682;9.022;2023-07-30T10:12:31;5.53;;;3.00;;
42802;SDS011;28447;48.682;9.022;2023-07-30T10:15:00;5.30;;;2.80;;
42802;SDS011;28447;48.682;9.022;2023-07-30T10:17:26;4.73;;;2.70;;
42802;SDS011;28447;48.682;9.022;2023-07-30T10:19:53;5.13;;;2.23;;
42802;SDS011;28447;48.682;9.022;2023-07-30T10:22:22;3.30;;;3.00;;
42802;SDS011;28447;48.682;9.022;2023-07-30T10:24:59;3.53;;;2.93;;
42802;SDS011;28447;48.682;9.022;2023-07-30T10:27:27;3.00;;;2.63;;
42802;SDS011;28447;48.682;9.022;2023-07-30T10:30:08;4.40;;;3.40;;
42802;SDS011;28447;48.682;9.022;2023-07-30T10:32:38;5.30;;;3.57;;
42802;SDS011;28447;48.682;9.022;2023-07-30T10:40:38;3.80;;;3.10;;
42802;SDS011;28447;48.682;9.022;2023-07-30T10:43:14;7.03;;;2.53;;
42802;SDS011;28447;48.682;9.022;2023-07-30T10:45:50;4.83;;;2.97;;
42802;SDS011;28447;48.682;9.022;2023-07-30T10:48:16;3.73;;;3.00;;
42802;SDS011;28447;48.682;9.022;2023-07-30T10:50:43;3.20;;;2.90;;
42802;SDS011;28447;48.682;9.022;2023-07-30T10:53:13;3.90;;;2.80;;
42802;SDS011;28447;48.682;9.022;2023-07-30T10:55:41;4.87;;;2.90;;
42802;SDS011;28447;48.682;9.022;2023-07-30T10:58:07;3.60;;;2.73;;
42802;SDS011;28447;48.682;9.022;2023-07-30T11:00:32;4.77;;;3.27;;
42802;SDS011;28447;48.682;9.022;2023-07-30T11:02:58;4.10;;;3.20;;
42802;SDS011;28447;48.682;9.022;2023-07-30T11:05:24;3.90;;;2.60;;
42802;SDS011;28447;48.682;9.022;2023-07-30T11:07:50;3.73;;;2.80;;
42802;SDS011;28447;48.682;9.022;2023-07-30T11:10:17;2.60;;;2.37;;
42802;SDS011;28447;48.682;9.022;2023-07-30T11:12:42;3.47;;;3.00;;
42802;SDS011;28447;48.682;9.022;2023-07-30T11:15:08;3.17;;;2.87;;
42802;SDS011;28447;48.682;9.022;2023-07-30T11:17:35;2.60;;;2.33;;
42802;SDS011;28447;48.682;9.022;2023-07-30T11:20:00;3.60;;;2.73;;
42802;SDS011;28447;48.682;9.022;2023-07-30T11:22:30;3.10;;;2.80;;
42802;SDS011;28447;48.682;9.022;2023-07-30T11:24:57;3.87;;;2.67;;
42802;SDS011;28447;48.682;9.022;2023-07-30T11:27:23;3.10;;;2.80;;
42802;SDS011;28447;48.682;9.022;2023-07-30T11:29:56;2.77;;;2.50;;
42802;SDS011;28447;48.682;9.022;2023-07-30T11:32:22;4.10;;;2.93;;
42802;SDS011;28447;48.682;9.022;2023-07-30T11:34:53;2.97;;;2.57;;
42802;SDS011;28447;48.682;9.022;2023-07-30T11:37:20;3.40;;;2.67;;
42802;SDS011;28447;48.682;9.022;2023-07-30T11:39:46;3.20;;;2.90;;
42802;SDS011;28447;48.682;9.022;2023-07-30T11:42:12;2.73;;;2.47;;
42802;SDS011;28447;48.682;9.022;2023-07-30T11:44:38;3.00;;;2.70;;
42802;SDS011;28447;48.682;9.022;2023-07-30T11:47:04;3.67;;;2.50;;
42802;SDS011;28447;48.682;9.022;2023-07-30T11:49:34;3.90;;;2.90;;
42802;SDS011;28447;48.682;9.022;2023-07-30T11:52:09;3.53;;;3.00;;
42802;SDS011;28447;48.682;9.022;2023-07-30T11:54:36;4.40;;;2.80;;
42802;SDS011;28447;48.682;9.022;2023-07-30T11:57:02;3.83;;;2.80;;
42802;SDS011;28447;48.682;9.022;2023-07-30T11:59:27;3.33;;;3.00;;
42802;SDS011;28447;48.682;9.022;2023-07-30T12:01:55;7.53;;;3.00;;
42802;SDS011;28447;48.682;9.022;2023-07-30T12:04:21;5.73;;;3.10;;
42802;SDS011;28447;48.682;9.022;2023-07-30T12:06:51;5.50;;;3.40;;
42802;SDS011;28447;48.682;9.022;2023-07-30T12:09:22;3.90;;;3.23;;
42802;SDS011;28447;48.682;9.022;2023-07-30T12:14:43;3.57;;;3.13;;
42802;SDS011;28447;48.682;9.022;2023-07-30T12:17:09;4.23;;;3.23;;
42802;SDS011;28447;48.682;9.022;2023-07-30T12:19:34;4.17;;;3.20;;
42802;SDS011;28447;48.682;9.022;2023-07-30T12:22:03;7.13;;;5.20;;
42802;SDS011;28447;48.682;9.022;2023-07-30T12:24:29;5.73;;;4.23;;
42802;SDS011;28447;48.682;9.022;2023-07-30T12:26:54;5.23;;;4.53;;
42802;SDS011;28447;48.682;9.022;2023-07-30T12:29:20;5.40;;;3.40;;
42802;SDS011;28447;48.682;9.022;2023-07-30T12:31:46;4.30;;;3.80;;
42802;SDS011;28447;48.682;9.022;2023-07-30T12:34:12;4.60;;;3.40;;
42802;SDS011;28447;48.682;9.022;2023-07-30T12:36:38;2.83;;;2.53;;
42802;SDS011;28447;48.682;9.022;2023-07-30T12:39:03;4.37;;;3.47;;
42802;SDS011;28447;48.682;9.022;2023-07-30T12:41:29;3.30;;;3.00;;
42802;SDS011;28447;48.682;9.022;2023-07-30T12:43:55;4.07;;;3.40;;
42802;SDS011;28447;48.682;9.022;2023-07-30T12:46:22;4.13;;;3.50;;
42802;SDS011;28447;48.682;9.022;2023-07-30T12:48:47;4.13;;;3.20;;
42802;SDS011;28447;48.682;9.022;2023-07-30T12:51:14;3.33;;;3.00;;
42802;SDS011;28447;48.682;9.022;2023-07-30T12:53:39;3.23;;;2.93;;
42802;SDS011;28447;48.682;9.022;2023-07-30T12:56:05;2.57;;;2.30;;
42802;SDS011;28447;48.682;9.022;2023-07-30T12:58:30;6.10;;;3.40;;
42802;SDS011;28447;48.682;9.022;2023-07-30T13:00:56;3.60;;;3.00;;
42802;SDS011;28447;48.682;9.022;2023-07-30T13:03:22;3.73;;;2.90;;
42802;SDS011;28447;48.682;9.022;2023-07-30T13:05:47;3.50;;;2.90;;
42802;SDS011;28447;48.682;9.022;2023-07-30T13:08:13;4.73;;;3.17;;
42802;SDS011;28447;48.682;9.022;2023-07-30T13:10:38;5.17;;;2.80;;
42802;SDS011;28447;48.682;9.022;2023-07-30T13:13:04;3.00;;;2.70;;
42802;SDS011;28447;48.682;9.022;2023-07-30T13:15:30;3.70;;;3.10;;
42802;SDS011;28447;48.682;9.022;2023-07-30T13:17:55;3.13;;;2.83;;
42802;SDS011;28447;48.682;9.022;2023-07-30T13:20:21;4.10;;;3.70;;
42802;SDS011;28447;48.682;9.022;2023-07-30T13:22:46;5.83;;;3.00;;
42802;SDS011;28447;48.682;9.022;2023-07-30T13:25:12;4.70;;;3.33;;
42802;SDS011;28447;48.682;9.022;2023-07-30T13:27:38;3.67;;;3.00;;
42802;SDS011;28447;48.682;9.022;2023-07-30T13:30:04;4.10;;;2.93;;
42802;SDS011;28447;48.682;9.022;2023-07-30T13:32:30;3.77;;;3.10;;
42802;SDS011;28447;48.682;9.022;2023-07-30T13:34:56;5.70;;;3.23;;
42802;SDS011;28447;48.682;9.022;2023-07-30T13:37:21;3.10;;;2.77;;
42802;SDS011;28447;48.682;9.022;2023-07-30T13:39:47;5.00;;;3.00;;
42802;SDS011;28447;48.682;9.022;2023-07-30T13:42:12;6.10;;;3.17;;
42802;SDS011;28447;48.682;9.022;2023-07-30T13:44:38;3.80;;;3.40;;
42802;SDS011;28447;48.682;9.022;2023-07-30T13:47:04;4.20;;;2.87;;
42802;SDS011;28447;48.682;9.022;2023-07-30T13:49:30;3.10;;;2.80;;
42802;SDS011;28447;48.682;9.022;2023-07-30T13:51:55;3.10;;;2.80;;
42802;SDS011;28447;48.682;9.022;2023-07-30T13:54:21;5.40;;;2.97;;
42802;SDS011;28447;48.682;9.022;2023-07-30T13:56:47;4.80;;;2.63;;
42802;SDS011;28447;48.682;9.022;2023-07-30T13:59:12;3.83;;;2.70;;
42802;SDS011;28447;48.682;9.022;2023-07-30T14:01:38;4.20;;;3.20;;
42802;SDS011;28447;48.682;9.022;2023-07-30T14:04:03;5.90;;;3.10;;
42802;SDS011;28447;48.682;9.022;2023-07-30T14:06:29;3.33;;;2.60;;
42802;SDS011;28447;48.682;9.022;2023-07-30T14:08:55;3.20;;;2.20;;
42802;SDS011;28447;48.682;9.022;2023-07-30T14:11:22;2.97;;;2.53;;
42802;SDS011;28447;48.682;9.022;2023-07-30T14:13:47;5.63;;;2.53;;
42802;SDS011;28447;48.682;9.022;2023-07-30T14:16:13;14.07;;;3.15;;
42802;SDS011;28447;48.682;9.022;2023-07-30T14:18:39;3.47;;;2.47;;
42802;SDS011;28447;48.682;9.022;2023-07-30T14:21:04;4.10;;;2.67;;
42802;SDS011;28447;48.682;9.022;2023-07-30T14:23:30;3.17;;;2.60;;
42802;SDS011;28447;48.682;9.022;2023-07-30T14:25:55;2.93;;;2.37;;
42802;SDS011;28447;48.682;9.022;2023-07-30T14:28:21;3.80;;;2.93;;
42802;SDS011;28447;48.682;9.022;2023-07-30T14:30:47;3.33;;;2.73;;
42802;SDS011;28447;48.682;9.022;2023-07-30T14:33:13;5.83;;;2.87;;
42802;SDS011;28447;48.682;9.022;2023-07-30T14:35:39;3.70;;;2.60;;
42802;SDS011;28447;48.682;9.022;2023-07-30T14:38:05;3.10;;;2.60;;
42802;SDS011;28447;48.682;9.022;2023-07-30T14:40:31;3.50;;;2.50;;
42802;SDS011;28447;48.682;9.022;2023-07-30T14:42:57;5.20;;;2.57;;
42802;SDS011;28447;48.682;9.022;2023-07-30T14:45:23;5.17;;;3.00;;
42802;SDS011;28447;48.682;9.022;2023-07-30T14:47:49;4.00;;;2.40;;
42802;SDS011;28447;48.682;9.022;2023-07-30T14:50:14;3.85;;;2.72;;
42802;SDS011;28447;48.682;9.022;2023-07-30T14:52:40;4.43;;;2.50;;
42802;SDS011;28447;48.682;9.022;2023-07-30T14:55:06;2.40;;;2.20;;
42802;SDS011;28447;48.682;9.022;2023-07-30T14:57:32;3.08;;;2.45;;
42802;SDS011;28447;48.682;9.022;2023-07-30T14:59:58;4.87;;;2.77;;
42802;SDS011;28447;48.682;9.022;2023-07-30T15:02:25;4.73;;;2.80;;
42802;SDS011;28447;48.682;9.022;2023-07-30T15:04:53;2.40;;;2.20;;
42802;SDS011;28447;48.682;9.022;2023-07-30T15:07:19;2.50;;;2.30;;
42802;SDS011;28447;48.682;9.022;2023-07-30T15:09:44;4.70;;;2.20;;
42802;SDS011;28447;48.682;9.022;2023-07-30T15:12:11;3.20;;;2.10;;
42802;SDS011;28447;48.682;9.022;2023-07-30T15:14:37;6.13;;;2.43;;
42802;SDS011;28447;48.682;9.022;2023-07-30T15:17:03;3.83;;;2.40;;
42802;SDS011;28447;48.682;9.022;2023-07-30T15:19:30;4.67;;;2.37;;
42802;SDS011;28447;48.682;9.022;2023-07-30T15:21:56;5.10;;;2.00;;
42802;SDS011;28447;48.682;9.022;2023-07-30T15:24:21;3.77;;;2.47;;
42802;SDS011;28447;48.682;9.022;2023-07-30T15:26:47;4.13;;;2.53;;
42802;SDS011;28447;48.682;9.022;2023-07-30T15:29:13;3.07;;;2.07;;
42802;SDS011;28447;48.682;9.022;2023-07-30T15:31:38;3.97;;;2.87;;
42802;SDS011;28447;48.682;9.022;2023-07-30T15:34:04;4.40;;;2.70;;
42802;SDS011;28447;48.682;9.022;2023-07-30T15:36:30;9.53;;;2.53;;
42802;SDS011;28447;48.682;9.022;2023-07-30T15:38:55;4.73;;;2.03;;
42802;SDS011;28447;48.682;9.022;2023-07-30T15:41:21;2.80;;;2.00;;
42802;SDS011;28447;48.682;9.022;2023-07-30T15:43:47;5.60;;;2.47;;
42802;SDS011;28447;48.682;9.022;2023-07-30T15:46:13;2.70;;;1.83;;
42802;SDS011;28447;48.682;9.022;2023-07-30T15:48:45;5.30;;;2.43;;
42802;SDS011;28447;48.682;9.022;2023-07-30T15:51:12;2.30;;;2.10;;
42802;SDS011;28447;48.682;9.022;2023-07-30T15:53:38;3.97;;;2.10;;
42802;SDS011;28447;48.682;9.022;2023-07-30T15:56:04;2.40;;;2.20;;
42802;SDS011;28447;48.682;9.022;2023-07-30T15:58:31;2.70;;;2.03;;
42802;SDS011;28447;48.682;9.022;2023-07-30T16:00:56;4.97;;;2.20;;
42802;SDS011;28447;48.682;9.022;2023-07-30T16:03:25;3.63;;;2.00;;
42802;SDS011;28447;48.682;9.022;2023-07-30T16:05:50;4.73;;;2.37;;
42802;SDS011;28447;48.682;9.022;2023-07-30T16:08:16;4.13;;;2.27;;
42802;SDS011;28447;48.682;9.022;2023-07-30T16:10:41;2.90;;;2.60;;
42802;SDS011;28447;48.682;9.022;2023-07-30T16:13:07;3.60;;;2.20;;
42802;SDS011;28447;48.682;9.022;2023-07-30T16:15:34;2.97;;;2.30;;
42802;SDS011;28447;48.682;9.022;2023-07-30T16:18:00;4.20;;;2.50;;
42802;SDS011;28447;48.682;9.022;2023-07-30T16:20:26;4.10;;;2.20;;
42802;SDS011;28447;48.682;9.022;2023-07-30T16:22:53;2.57;;;2.17;;
42802;SDS011;28447;48.682;9.022;2023-07-30T16:25:18;3.37;;;2.10;;
42802;SDS011;28447;48.682;9.022;2023-07-30T16:27:44;4.90;;;2.30;;
42802;SDS011;28447;48.682;9.022;2023-07-30T16:30:09;2.93;;;2.40;;
42802;SDS011;28447;48.682;9.022;2023-07-30T16:32:35;4.67;;;2.30;;
42802;SDS011;28447;48.682;9.022;2023-07-30T16:35:01;4.07;;;2.50;;
42802;SDS011;28447;48.682;9.022;2023-07-30T16:37:27;6.30;;;3.00;;
42802;SDS011;28447;48.682;9.022;2023-07-30T16:39:53;4.03;;;2.20;;
42802;SDS011;28447;48.682;9.022;2023-07-30T16:42:19;4.60;;;2.20;;
42802;SDS011;28447;48.682;9.022;2023-07-30T16:44:48;3.00;;;2.20;;
42802;SDS011;28447;48.682;9.022;2023-07-30T16:47:14;3.73;;;2.03;;
42802;SDS011;28447;48.682;9.022;2023-07-30T16:49:40;4.27;;;2.40;;
42802;SDS011;28447;48.682;9.022;2023-07-30T16:52:05;6.53;;;2.40;;
42802;SDS011;28447;48.682;9.022;2023-07-30T16:54:32;3.10;;;2.40;;
42802;SDS011;28447;48.682;9.022;2023-07-30T16:56:58;2.10;;;1.90;;
42802;SDS011;28447;48.682;9.022;2023-07-30T16:59:24;4.53;;;2.20;;
42802;SDS011;28447;48.682;9.022;2023-07-30T17:01:49;3.30;;;2.27;;
42802;SDS011;28447;48.682;9.022;2023-07-30T17:04:15;4.17;;;2.20;;
42802;SDS011;28447;48.682;9.022;2023-07-30T17:06:40;5.73;;;2.30;;
42802;SDS011;28447;48.682;9.022;2023-07-30T17:09:06;3.30;;;2.20;;
42802;SDS011;28447;48.682;9.022;2023-07-30T17:11:32;4.17;;;2.47;;
42802;SDS011;28447;48.682;9.022;2023-07-30T17:13:57;7.97;;;2.23;;
42802;SDS011;28447;48.682;9.022;2023-07-30T17:16:23;4.03;;;2.40;;
42802;SDS011;28447;48.682;9.022;2023-07-30T17:18:49;4.47;;;2.43;;
42802;SDS011;28447;48.682;9.022;2023-07-30T17:21:17;7.57;;;2.50;;
42802;SDS011;28447;48.682;9.022;2023-07-30T17:23:43;7.30;;;2.00;;
42802;SDS011;28447;48.682;9.022;2023-07-30T17:26:08;4.10;;;2.33;;
42802;SDS011;28447;48.682;9.022;2023-07-30T17:28:34;6.90;;;2.40;;
42802;SDS011;28447;48.682;9.022;2023-07-30T17:31:00;4.37;;;2.20;;
42802;SDS011;28447;48.682;9.022;2023-07-30T17:33:26;3.30;;;2.43;;
42802;SDS011;28447;48.682;9.022;2023-07-30T17:35:52;8.73;;;2.33;;
42802;SDS011;28447;48.682;9.022;2023-07-30T17:38:18;3.57;;;2.10;;
42802;SDS011;28447;48.682;9.022;2023-07-30T17:41:01;2.77;;;2.00;;
42802;SDS011;28447;48.682;9.022;2023-07-30T17:43:27;2.83;;;2.10;;
42802;SDS011;28447;48.682;9.022;2023-07-30T17:45:53;4.57;;;2.30;;
42802;SDS011;28447;48.682;9.022;2023-07-30T17:48:18;4.43;;;2.30;;
42802;SDS011;28447;48.682;9.022;2023-07-30T17:50:44;2.03;;;1.83;;
42802;SDS011;28447;48.682;9.022;2023-07-30T17:53:10;2.53;;;2.10;;
42802;SDS011;28447;48.682;9.022;2023-07-30T17:55:39;3.27;;;2.40;;
42802;SDS011;28447;48.682;9.022;2023-07-30T17:58:06;3.30;;;2.30;;
42802;SDS011;28447;48.682;9.022;2023-07-30T18:00:32;4.60;;;2.20;;
42802;SDS011;28447;48.682;9.022;2023-07-30T18:02:58;4.60;;;2.33;;
42802;SDS011;28447;48.682;9.022;2023-07-30T18:05:23;8.90;;;2.40;;
42802;SDS011;28447;48.682;9.022;2023-07-30T18:07:49;2.83;;;2.10;;
42802;SDS011;28447;48.682;9.022;2023-07-30T18:10:15;6.43;;;2.07;;
42802;SDS011;28447;48.682;9.022;2023-07-30T18:12:40;5.73;;;2.40;;
42802;SDS011;28447;48.682;9.022;2023-07-30T18:15:06;2.83;;;1.90;;
42802;SDS011;28447;48.682;9.022;2023-07-30T18:17:32;2.87;;;2.10;;
42802;SDS011;28447;48.682;9.022;2023-07-30T18:19:58;9.80;;;2.30;;
42802;SDS011;28447;48.682;9.022;2023-07-30T18:22:23;3.80;;;2.17;;
42802;SDS011;28447;48.682;9.022;2023-07-30T18:24:49;3.40;;;2.03;;
42802;SDS011;28447;48.682;9.022;2023-07-30T18:27:14;3.43;;;2.20;;
42802;SDS011;28447;48.682;9.022;2023-07-30T18:29:40;5.17;;;2.47;;
42802;SDS011;28447;48.682;9.022;2023-07-30T18:32:06;5.17;;;1.97;;
42802;SDS011;28447;48.682;9.022;2023-07-30T18:34:36;3.87;;;2.07;;
42802;SDS011;28447;48.682;9.022;2023-07-30T18:37:05;4.87;;;2.30;;
42802;SDS011;28447;48.682;9.022;2023-07-30T18:39:31;5.40;;;2.37;;
42802;SDS011;28447;48.682;9.022;2023-07-30T18:41:57;5.60;;;2.67;;
42802;SDS011;28447;48.682;9.022;2023-07-30T18:44:23;3.70;;;2.10;;
42802;SDS011;28447;48.682;9.022;2023-07-30T18:46:48;3.10;;;2.00;;
42802;SDS011;28447;48.682;9.022;2023-07-30T18:49:15;4.10;;;2.10;;
42802;SDS011;28447;48.682;9.022;2023-07-30T18:51:42;3.40;;;2.10;;